Tiempo atmosférico en la estación meteorológica de Miguelañez, Segovia (870 m.)



Fecha
DESCASC
Temp. máxima en grados centígrados (hora)
DESCASC
Temp. mínima en grados centígrados (hora)
DESCASC
Temp. media en grados centígrados
DESCASC
Racha de viento máxima en m/sg (hora)
DESCASC
Velocidad máxima media en intervalos de 10 minutos(hora)
DESCASC
Precipitaciones diarias en mm
DESCASC
Precipitaciones de 00:00 a 06:00 en mm
DESCASC
Precipitaciones de 06:00 a 12:00 en mm
DESCASC
Precipitaciones de 12:00 a 18:00 en mm
DESCASC
Precipitaciones de 18:00 a 24:00 en mm
DESCASC
02-07-2020 27.4 (17:40) 14.8 (07:00) 21.1 12.78 (17:00) 8.61 (18:50) 0 0 0 0 0
01-07-2020 30.9 (17:40) 18.3 (07:00) 24.6 14.44 (19:00) 9.17 (18:30) 0 0 0 0 0
30-06-2020 33.1 (15:30) 15.8 (00:00) 24.4 17.22 (16:20) 8.06 (19:20) 5.8 0 0 5.8 0
29-06-2020 32 (18:20) 16.3 (00:00) 24.1 8.89 (15:40) 5.56 (18:50) 0 0 0 0 0
28-06-2020 30 (19:00) 15.1 (00:00) 22.6 8.06 (17:30) 5 (18:10) 0 0 0 0 0
27-06-2020 27.4 (18:10) 13.7 (00:00) 20.5 10 (19:20) 6.11 (17:50) 0 0 0 0 0
26-06-2020 26.7 (17:30) 15.2 (00:00) 21 11.39 (16:30) 8.33 (18:30) 0 0 0 0 0
25-06-2020 -- (--) -- (--) -- -- (--) -- (--) -- -- -- -- 0.4
24-06-2020 -- (--) -- (--) -- -- (--) -- (--) -- 0.6 -- -- --
23-06-2020 34.3 (14:40) 15 (00:00) 24.6 15 (20:30) 8.61 (17:10) 0 0 0 0 0
22-06-2020 32.8 (18:20) 12.6 (00:00) 22.7 7.78 (13:40) 4.44 (23:50) 0 0 0 0 0
21-06-2020 30.1 (18:40) 14.1 (00:00) 22.1 8.89 (17:00) 5.83 (16:40) 0 0 0 0 0
20-06-2020 29.2 (18:50) 13.2 (00:00) 21.2 10.56 (18:40) 6.67 (18:30) 0 0 0 0 0
19-06-2020 27.1 (18:40) 11.2 (00:00) 19.2 10.83 (16:00) 6.94 (14:50) 0 0 0 0 0
18-06-2020 24.4 (17:20) 9.4 (06:30) 16.9 11.67 (17:30) 7.22 (16:10) 0 0 0 0 0
17-06-2020 22.5 (17:40) 9.6 (00:00) 16.1 8.61 (13:30) 5.28 (19:20) 0 0 0 0 0
16-06-2020 21.8 (18:40) 11.5 (00:00) 16.6 14.44 (16:10) 9.72 (19:30) 0.2 0 0 0.2 0
15-06-2020 23.6 (17:20) 11.4 (00:00) 17.5 10.56 (19:10) 7.5 (21:10) 0 0 0 0 0
14-06-2020 21.9 (17:50) 10.7 (00:00) 16.3 11.39 (18:10) 6.94 (19:00) 0 0 0 0 0
13-06-2020 20.1 (18:30) 7.7 (00:00) 13.9 11.11 (17:30) 7.22 (19:10) 0 0 0 0 0
12-06-2020 17.3 (17:10) 6.9 (00:00) 12.1 17.22 (18:00) 12.78 (18:00) 0 0 0 0 0
11-06-2020 19.9 (18:30) 10.9 (00:00) 15.4 17.5 (18:50) 12.5 (19:00) 0 0 0 0 0
10-06-2020 23 (17:00) 6.3 (00:00) 14.7 10.28 (15:10) 6.67 (15:40) 0 0 0 0 0
09-06-2020 19.3 (18:50) 5.9 (00:00) 12.6 7.5 (00:10) 5.28 (01:10) 0 0 0 0 0
08-06-2020 19.2 (18:20) 6.7 (05:30) 13 10.28 (14:40) 6.11 (16:50) 0 0 0 0 0
07-06-2020 17.1 (17:00) 10.2 (00:00) 13.7 8.89 (22:00) 6.11 (12:10) 5.4 4.6 0 0.4 0.4
06-06-2020 25.4 (18:00) 13.8 (00:00) 19.6 12.78 (20:20) 10 (20:20) 0 0 0 0 0
05-06-2020 26 (20:10) 7.4 (00:00) 16.7 7.22 (14:00) 3.89 (04:50) 0 0 0 0 0
04-06-2020 19.5 (16:50) 11.5 (00:00) 15.5 15.83 (13:30) 9.17 (16:10) 17.2 17 0.2 0 0
03-06-2020 26.1 (16:20) 13.7 (00:00) 19.9 13.89 (17:10) 10.83 (18:20) 14.2 0 0 0 14.2

Gráficas

Temp. máximas Temp. mínimas Temp. medias Precipitaciones Rachas de viento máximas Velocidades máximas media en intervalos de 10 minutos

Datos horarios

Fecha y hora oficial Temperatura (ºC) Velocidad del viento (km/h) Dirección del viento Racha (km/h) Dirección de racha Precipitación (mm) Presión (hPa) Tendencia (hPa) Humedad (%)
2020-07-02 23:00:00 18.9 12 Oeste 22 Oeste 0 -- -- 42
2020-07-02 22:00:00 21.7 18 Oeste 35 Noroeste 0 -- -- 38
2020-07-02 21:00:00 24.7 23 Oeste 39 Oeste 0 -- -- 30
2020-07-02 20:00:00 26.2 26 Oeste 43 Oeste 0 -- -- 30
2020-07-02 19:00:00 26.7 27 Oeste 44 Oeste 0 -- -- 32
2020-07-02 18:00:00 27 28 Oeste 41 Oeste 0 -- -- 34
2020-07-02 17:00:00 27.1 28 Oeste 46 Oeste 0 -- -- 34
2020-07-02 16:00:00 26.5 22 Oeste 41 Oeste 0 -- -- 38
2020-07-02 15:00:00 26.2 18 Sudoeste 36 Oeste 0 -- -- 39
2020-07-02 14:00:00 25.4 13 Oeste 27 Oeste 0 -- -- 43
2020-07-02 13:00:00 23.8 8 Oeste 27 Oeste 0 -- -- 49
2020-07-02 12:00:00 22.3 11 Oeste 19 Oeste 0 -- -- 56
2020-07-02 11:00:00 20.8 7 Oeste 14 Oeste 0 -- -- 60
2020-07-02 10:00:00 18.8 9 Oeste 15 Noroeste 0 -- -- 67
2020-07-02 09:00:00 17 9 Sudoeste 15 Sudoeste 0 -- -- 75
2020-07-02 08:00:00 15.9 11 Sur 17 Sudoeste 0 -- -- 75
2020-07-02 07:00:00 14.8 15 Sudoeste 17 Sudoeste 0 -- -- 77
2020-07-02 06:00:00 15.8 8 Sudoeste 15 Sudoeste 0 -- -- 72
2020-07-02 05:00:00 16.4 12 Sudoeste 20 Sudoeste 0 -- -- 68
2020-07-02 04:00:00 17.3 14 Sudoeste 19 Sudoeste 0 -- -- 64
2020-07-02 03:00:00 18.3 13 Sudoeste 17 Sudoeste 0 -- -- 60
2020-07-02 02:00:00 19.5 15 Sudoeste 18 Sudoeste 0 -- -- 56
2020-07-02 01:00:00 20.4 12 Sudoeste 15 Sudoeste 0 -- -- 54
2020-07-02 00:00:00 21.6 10 Oeste 18 Oeste 0 -- -- 48
2020-07-01 23:00:00 22.9 9 Oeste 18 Noroeste 0 -- -- 42
2020-07-01 22:00:00 25.1 16 Oeste 31 Oeste 0 -- -- 36
2020-07-01 21:00:00 27.8 24 Oeste 40 Oeste 0 -- -- 32
2020-07-01 20:00:00 29.2 29 Oeste 46 Oeste 0 -- -- 29
2020-07-01 19:00:00 29.9 26 Oeste 52 Oeste 0 -- -- 27
2020-07-01 18:00:00 30.8 30 Oeste 43 Oeste 0 -- -- 27
2020-07-01 17:00:00 30.7 24 Oeste 43 Sudoeste 0 -- -- 29
2020-07-01 16:00:00 30.3 20 Oeste 45 Oeste 0 -- -- 28
2020-07-01 15:00:00 29.1 17 Oeste 39 Oeste 0 -- -- 40
2020-07-01 14:00:00 28 23 Oeste 35 Oeste 0 -- -- 45
2020-07-01 13:00:00 26.7 15 Oeste 26 Oeste 0 -- -- 52
2020-07-01 12:00:00 25.5 15 Oeste 27 Sudoeste 0 -- -- 58
2020-07-01 11:00:00 23.7 10 Oeste 18 Sudoeste 0 -- -- 65
2020-07-01 10:00:00 21.7 7 Oeste 16 Sudoeste 0 -- -- 70
2020-07-01 09:00:00 20 10 Sudoeste 16 Sudoeste 0 -- -- 74
2020-07-01 08:00:00 18.8 12 Sudoeste 18 Sudoeste 0 -- -- 72
2020-07-01 07:00:00 18.3 13 Sudoeste 21 Sudoeste 0 -- -- 71
2020-07-01 06:00:00 19.6 19 Sudoeste 24 Sur 0 -- -- 65
2020-07-01 05:00:00 19.9 18 Sudoeste 24 Sudoeste 0 -- -- 62
2020-07-01 04:00:00 19.9 18 Sudoeste 27 Sur 0 -- -- 60
2020-07-01 03:00:00 20.8 21 Sudoeste 27 Sudoeste 0 -- -- 54
2020-07-01 02:00:00 21.8 20 Sudoeste 26 Sur 0 -- -- 48
2020-07-01 01:00:00 23.6 19 Sur 27 Sudoeste 0 -- -- 40
2020-07-01 00:00:00 25 15 Sudoeste 22 Sudoeste 0 -- -- 37
2020-06-30 23:00:00 26.2 14 Sudoeste 19 Sudoeste 0 -- -- 34
2020-06-30 22:00:00 26.9 14 Sudoeste 30 Oeste 0 -- -- 34
2020-06-30 21:00:00 30.1 24 Oeste 32 Oeste 0 -- -- 30
2020-06-30 20:00:00 30.1 9 Sudoeste 46 Oeste 0 -- -- 32
2020-06-30 19:00:00 30.2 6 Sudoeste 12 Sudoeste 0 -- -- 41
2020-06-30 18:00:00 28.9 0 Calma 16 Nordeste 0 -- -- 44
2020-06-30 17:00:00 26.6 13 Nordeste 62 Sudeste 5.8 -- -- 60
2020-06-30 16:00:00 32.1 14 Noroeste 27 Oeste 0 -- -- 30
2020-06-30 15:00:00 32.7 9 Sudeste 26 Oeste 0 -- -- 30
2020-06-30 14:00:00 32.1 14 Oeste 28 Noroeste 0 -- -- 30
2020-06-30 13:00:00 31 7 Noroeste 18 Sudoeste 0 -- -- 34
2020-06-30 12:00:00 28.7 6 Oeste 15 Oeste 0 -- -- 40
2020-06-30 11:00:00 26.2 6 Noroeste 9 Norte 0 -- -- 45
2020-06-30 10:00:00 22.8 4 Noroeste 7 Oeste 0 -- -- 61
2020-06-30 09:00:00 19.9 3 Sudeste 4 Noroeste 0 -- -- 70
2020-06-30 08:00:00 17.6 2 Sudeste 6 Sudeste 0 -- -- 76
2020-06-30 07:00:00 15.8 0 Calma 5 Norte 0 -- -- 81
2020-06-30 06:00:00 16.8 3 Noroeste 21 Sudeste 0 -- -- 79
2020-06-30 05:00:00 18 5 Sudeste 13 Este 0 -- -- 79
2020-06-30 04:00:00 18 9 Este 14 Este 0 -- -- 78
2020-06-30 03:00:00 18.8 3 Oeste 8 Este 0 -- -- 72
2020-06-30 02:00:00 19.8 4 Nordeste 14 Nordeste 0 -- -- 68
2020-06-30 01:00:00 20.7 12 Nordeste 23 Nordeste 0 -- -- 64
2020-06-30 00:00:00 21.9 15 Nordeste 23 Nordeste 0 -- -- 60
2020-06-29 23:00:00 23.4 17 Nordeste 28 Norte 0 -- -- 55
2020-06-29 22:00:00 26.8 8 Norte 19 Norte 0 -- -- 38
2020-06-29 21:00:00 29.6 17 Noroeste 24 Noroeste 0 -- -- 32
2020-06-29 20:00:00 31.2 17 Noroeste 26 Oeste 0 -- -- 30
2020-06-29 19:00:00 31.7 12 Noroeste 28 Noroeste 0 -- -- 30
2020-06-29 18:00:00 31.5 15 Oeste 32 Oeste 0 -- -- 29
2020-06-29 17:00:00 31.4 11 Noroeste 32 Oeste 0 -- -- 31
2020-06-29 16:00:00 30.6 13 Noroeste 32 Oeste 0 -- -- 32
2020-06-29 15:00:00 29.9 13 Oeste 27 Oeste 0 -- -- 36
2020-06-29 14:00:00 28.2 12 Sudoeste 20 Oeste 0 -- -- 42
2020-06-29 13:00:00 26.5 10 Noroeste 17 Noroeste 0 -- -- 48
2020-06-29 12:00:00 24.9 6 Oeste 14 Oeste 0 -- -- 52
2020-06-29 11:00:00 22.8 6 Noroeste 15 Oeste 0 -- -- 58
2020-06-29 10:00:00 20.4 5 Oeste 11 Oeste 0 -- -- 65
2020-06-29 09:00:00 18.6 3 Oeste 6 Oeste 0 -- -- 71
2020-06-29 08:00:00 17.2 3 Sur 14 Sudoeste 0 -- -- 76
2020-06-29 07:00:00 16.3 14 Sudoeste 21 Sudoeste 0 -- -- 78
2020-06-29 06:00:00 16.4 13 Sudoeste 18 Sudoeste 0 -- -- 77
2020-06-29 05:00:00 16.7 14 Sudoeste 20 Sur 0 -- -- 77
2020-06-29 04:00:00 17.6 15 Sudoeste 20 Sudoeste 0 -- -- 74
2020-06-29 03:00:00 18.5 13 Sudoeste 17 Sudoeste 0 -- -- 69
2020-06-29 02:00:00 19.5 9 Sudoeste 16 Sudoeste 0 -- -- 66
2020-06-29 01:00:00 20.6 12 Oeste 17 Oeste 0 -- -- 62
2020-06-29 00:00:00 21.5 10 Oeste 15 Oeste 0 -- -- 57
2020-06-28 23:00:00 23.4 9 Oeste 14 Oeste 0 -- -- 48
2020-06-28 22:00:00 25.5 8 Oeste 16 Oeste 0 -- -- 42
2020-06-28 21:00:00 28.5 15 Oeste 28 Oeste 0 -- -- 36
2020-06-28 20:00:00 29.5 15 Noroeste 27 Noroeste 0 -- -- 34
2020-06-28 19:00:00 30 10 Noroeste 28 Oeste 0 -- -- 34
2020-06-28 18:00:00 29.8 14 Noroeste 29 Oeste 0 -- -- 35
2020-06-28 17:00:00 29.5 12 Noroeste 23 Sudoeste 0 -- -- 35
2020-06-28 16:00:00 28.5 9 Noroeste 21 Oeste 0 -- -- 39
2020-06-28 15:00:00 27.4 5 Oeste 21 Oeste 0 -- -- 41
2020-06-28 14:00:00 25.9 5 Noroeste 20 Oeste 0 -- -- 46
2020-06-28 13:00:00 24.9 8 Oeste 18 Sudoeste 0 -- -- 51
2020-06-28 12:00:00 23.4 7 Noroeste 18 Oeste 0 -- -- 57
2020-06-28 11:00:00 21.5 5 Noroeste 10 Noroeste 0 -- -- 65
2020-06-28 10:00:00 19.6 4 Noroeste 8 Oeste 0 -- -- 71
2020-06-28 09:00:00 17.5 5 Sudoeste 10 Sudoeste 0 -- -- 79
2020-06-28 08:00:00 16.1 8 Sudoeste 18 Sudoeste 0 -- -- 82
2020-06-28 07:00:00 15.3 13 Sudoeste 17 Sur 0 -- -- 83
2020-06-28 06:00:00 16 14 Sur 17 Sur 0 -- -- 78
2020-06-28 05:00:00 16.5 11 Sudoeste 13 Sudoeste 0 -- -- 78
2020-06-28 04:00:00 15.4 8 Sudeste 12 Sudeste 0 -- -- 83
2020-06-28 03:00:00 18 6 Sudoeste 12 Oeste 0 -- -- 71
2020-06-28 02:00:00 18.5 7 Sudoeste 11 Oeste 0 -- -- 67
2020-06-28 01:00:00 18.7 8 Sudoeste 17 Oeste 0 -- -- 65
2020-06-28 00:00:00 19.6 11 Oeste 15 Oeste 0 -- -- 60
2020-06-27 23:00:00 21.1 5 Oeste 13 Oeste 0 -- -- 56
2020-06-27 22:00:00 22.1 13 Oeste 26 Oeste 0 -- -- 54
2020-06-27 21:00:00 25 22 Noroeste 28 Oeste 0 -- -- 46
2020-06-27 20:00:00 26.5 19 Oeste 36 Oeste 0 -- -- 42
2020-06-27 19:00:00 26.7 18 Oeste 32 Oeste 0 -- -- 42
2020-06-27 18:00:00 27.2 13 Oeste 31 Oeste 0 -- -- 39
2020-06-27 17:00:00 26.6 20 Oeste 34 Oeste 0 -- -- 40
2020-06-27 16:00:00 26.4 17 Oeste 27 Oeste 0 -- -- 40
2020-06-27 15:00:00 24.7 13 Oeste 31 Oeste 0 -- -- 44
2020-06-27 14:00:00 23.9 11 Oeste 23 Oeste 0 -- -- 49
2020-06-27 13:00:00 21.9 12 Oeste 23 Oeste 0 -- -- 57
2020-06-27 12:00:00 20.6 8 Noroeste 22 Noroeste 0 -- -- 61
2020-06-27 11:00:00 19.1 9 Oeste 19 Oeste 0 -- -- 67
2020-06-27 10:00:00 17.3 12 Oeste 21 Oeste 0 -- -- 73
2020-06-27 09:00:00 16.1 11 Sudoeste 18 Sudoeste 0 -- -- 77
2020-06-27 08:00:00 14.9 12 Sur 17 Sur 0 -- -- 80
2020-06-27 07:00:00 13.8 11 Sur 17 Sudoeste 0 -- -- 84
2020-06-27 06:00:00 14.2 11 Sudoeste 14 Sudoeste 0 -- -- 80
2020-06-27 05:00:00 14.5 9 Sudoeste 18 Sudoeste 0 -- -- 78
2020-06-27 04:00:00 15.1 14 Sudoeste 21 Sudoeste 0 -- -- 76
2020-06-27 03:00:00 16.1 13 Sudoeste 19 Sudoeste 0 -- -- 70
2020-06-27 02:00:00 16.9 12 Sudoeste 20 Sudoeste 0 -- -- 64
2020-06-27 01:00:00 17.5 11 Sudoeste 16 Oeste 0 -- -- 58
2020-06-27 00:00:00 18.6 10 Oeste 17 Oeste 0 -- -- 52
2020-06-26 23:00:00 19.4 10 Oeste 15 Sudoeste 0 -- -- 49
2020-06-26 22:00:00 20.6 10 Oeste 28 Oeste 0 -- -- 44
2020-06-26 21:00:00 23.7 22 Oeste 36 Oeste 0 -- -- 32
2020-06-26 20:00:00 25.3 22 Oeste 41 Noroeste 0 -- -- 29
2020-06-26 19:00:00 24.5 25 Oeste 41 Oeste 0 -- -- 33
2020-06-26 18:00:00 25.9 26 Oeste 41 Oeste 0 -- -- 32
2020-06-26 17:00:00 26.5 26 Oeste 41 Oeste 0 -- -- 34
2020-06-26 16:00:00 25.3 24 Oeste 39 Oeste 0 -- -- 41
2020-06-26 15:00:00 24.4 22 Oeste 34 Oeste 0 -- -- 40
2020-06-26 14:00:00 23.7 19 Oeste 28 Oeste 0 -- -- 44
2020-06-26 13:00:00 23.7 15 Oeste 24 Oeste 0 -- -- 52
2020-06-26 12:00:00 22 13 Oeste 24 Oeste 0 -- -- 59
2020-06-26 11:00:00 19.9 14 Oeste 22 Oeste 0 -- -- 68
2020-06-26 10:00:00 17.7 11 Oeste 18 Oeste 0 -- -- 75
2020-06-26 09:00:00 16.7 14 Oeste 20 Sudoeste 0 -- -- 76
2020-06-26 08:00:00 16 12 Sudoeste 15 Sudoeste 0 -- -- 74
2020-06-26 07:00:00 15.3 11 Sudoeste 22 Sudoeste 0 -- -- 73
2020-06-26 06:00:00 16.4 20 Sudoeste 28 Sudoeste 0 -- -- 66
2020-06-26 05:00:00 17.1 22 Sudoeste 28 Sur 0 -- -- 62
2020-06-26 04:00:00 17.9 22 Sudoeste 31 Sudoeste 0 -- -- 62
2020-06-26 03:00:00 19.7 21 Sur 28 Sudoeste 0 -- -- 58
2020-06-26 02:00:00 19.7 19 Sudoeste 28 Sudoeste 0 -- -- 60
2020-06-26 01:00:00 21.3 20 Sudoeste 27 Sudoeste 0 -- -- 55
2020-06-26 00:00:00 21.5 17 Sur 26 Sur 0 -- -- 61
2020-06-25 23:00:00 20.2 4 Nordeste 17 Sudeste 0 -- -- 70
2020-06-25 22:00:00 20.9 10 Sudeste 13 Sudeste 0 -- -- 72
2020-06-25 21:00:00 22.1 10 Sudeste 22 Este 0 -- -- 74
2020-06-25 20:00:00 21.1 20 Sudeste 35 Este 0.4 -- -- 74
2020-06-25 19:00:00 20 19 Sudeste 32 Sudeste 0 -- -- 80
2020-06-25 18:00:00 20.4 28 Este 39 Sudeste 1 -- -- 75
2020-06-25 17:00:00 18.7 30 Sudeste 39 Sudeste 3 -- -- 80
2020-06-25 16:00:00 15.8 15 Noroeste -- -- -- -- -- 88
2020-06-25 15:00:00 -- -- -- -- -- -- -- -- --
2020-06-25 14:00:00 -- -- -- -- -- -- -- -- --
2020-06-25 13:00:00 -- -- -- -- -- -- -- -- --
2020-06-25 12:00:00 -- -- -- -- -- -- -- -- --
2020-06-25 11:00:00 -- -- -- -- -- -- -- -- --
2020-06-25 10:00:00 -- -- -- -- -- -- -- -- --
2020-06-25 09:00:00 -- -- -- -- -- -- -- -- --
2020-06-25 08:00:00 -- -- -- -- -- -- -- -- --
2020-06-25 07:00:00 -- -- -- -- -- -- -- -- --
2020-06-25 06:00:00 -- -- -- -- -- -- -- -- --
2020-06-25 05:00:00 -- -- -- -- -- -- -- -- --
2020-06-25 04:00:00 -- -- -- -- -- -- -- -- --
2020-06-25 03:00:00 -- -- -- -- -- -- -- -- --
2020-06-25 02:00:00 -- -- -- -- -- -- -- -- --
2020-06-25 01:00:00 -- -- -- -- -- -- -- -- --
2020-06-25 00:00:00 -- -- -- -- -- -- -- -- --
2020-06-24 23:00:00 -- -- -- -- -- -- -- -- --
2020-06-24 22:00:00 -- -- -- -- -- -- -- -- --
2020-06-24 21:00:00 -- -- -- -- -- -- -- -- --
2020-06-24 20:00:00 -- -- -- -- -- -- -- -- --
2020-06-24 19:00:00 -- -- -- -- -- -- -- -- --
2020-06-24 18:00:00 -- -- -- -- -- -- -- -- --
2020-06-24 17:00:00 -- -- -- -- -- -- -- -- --
2020-06-24 16:00:00 -- -- -- -- -- -- -- -- --
2020-06-24 15:00:00 -- -- -- -- -- -- -- -- --
2020-06-24 14:00:00 -- -- -- -- -- -- -- -- --
2020-06-24 13:00:00 -- -- -- -- -- -- -- -- --
2020-06-24 12:00:00 -- -- -- -- -- -- -- -- --
2020-06-24 11:00:00 -- -- -- -- -- -- -- -- --
2020-06-24 10:00:00 -- -- -- -- -- -- -- -- --
2020-06-24 09:00:00 -- -- -- -- -- -- -- -- --
2020-06-24 08:00:00 -- -- -- -- -- -- -- -- --
2020-06-24 07:00:00 21.6 27 Sur 36 Sur 0.2 -- -- 53
2020-06-24 06:00:00 20 19 Sudeste 24 Este 0 -- -- 60
2020-06-24 05:00:00 18.5 18 Sudeste 22 Sudeste 0 -- -- 67
2020-06-24 04:00:00 20.3 19 Este 27 Este 0.6 -- -- 58
2020-06-24 03:00:00 20 14 Sudeste 45 Sudeste 0 -- -- 52
2020-06-24 02:00:00 19.9 10 Nordeste 15 Nordeste 0 -- -- 51
2020-06-24 01:00:00 20.2 14 Norte 27 Norte 0 -- -- 52
2020-06-24 00:00:00 22.6 18 Sudeste 28 Sudeste 0 -- -- 44
2020-06-23 23:00:00 23.3 21 Sudeste 33 Sudeste 0 -- -- 46
2020-06-23 22:00:00 26.6 7 Sudeste 33 Sudeste 0 -- -- 30
2020-06-23 21:00:00 30 10 Sudeste 54 Sur 0 -- -- 27
2020-06-23 20:00:00 31.2 13 Sudoeste 45 Oeste 0 -- -- 25
2020-06-23 19:00:00 31.6 15 Oeste 26 Oeste 0 -- -- 24
2020-06-23 18:00:00 31.5 12 Oeste 46 Sudoeste 0 -- -- 23
2020-06-23 17:00:00 30.9 24 Oeste 42 Sudoeste 0 -- -- 28
2020-06-23 16:00:00 33.6 11 Sudoeste 23 Oeste 0 -- -- 23
2020-06-23 15:00:00 33.2 8 Oeste 32 Oeste 0 -- -- 22
2020-06-23 14:00:00 33.3 10 Sur 36 Sudeste 0 -- -- 23
2020-06-23 13:00:00 32.9 11 Sur 21 Norte 0 -- -- 24
2020-06-23 12:00:00 31.5 4 Noroeste 13 Sudoeste 0 -- -- 28
2020-06-23 11:00:00 29.7 6 Nordeste 12 Este 0 -- -- 32
2020-06-23 10:00:00 27.3 4 Nordeste 10 Nordeste 0 -- -- 36
2020-06-23 09:00:00 24 3 Nordeste 6 Nordeste 0 -- -- 41
2020-06-23 08:00:00 18.9 4 Sudeste 8 Sudeste 0 -- -- 56
2020-06-23 07:00:00 15.2 5 Sudeste 7 Sudeste 0 -- -- 63
2020-06-23 06:00:00 15.7 2 Este 8 Oeste 0 -- -- 62
2020-06-23 05:00:00 17.2 5 Oeste 9 Este 0 -- -- 56
2020-06-23 04:00:00 16 6 Sudeste 13 Sudeste 0 -- -- 61
2020-06-23 03:00:00 18 0 Calma 4 Este 0 -- -- 56
2020-06-23 02:00:00 19.7 2 Norte 8 Nordeste 0 -- -- 49
2020-06-23 01:00:00 20.1 3 Este 15 Nordeste 0 -- -- 47
2020-06-23 00:00:00 22 15 Nordeste 21 Nordeste 0 -- -- 43
2020-06-22 23:00:00 23.3 13 Nordeste 21 Norte 0 -- -- 38
2020-06-22 22:00:00 26.4 10 Nordeste 16 Norte 0 -- -- 31
2020-06-22 21:00:00 30.4 12 Norte 21 Norte 0 -- -- 26
2020-06-22 20:00:00 32.2 13 Norte 21 Norte 0 -- -- 25
2020-06-22 19:00:00 32.5 6 Norte 26 Noroeste 0 -- -- 25
2020-06-22 18:00:00 32.5 12 Sudoeste 22 Oeste 0 -- -- 25
2020-06-22 17:00:00 31.8 11 Noroeste 21 Noroeste 0 -- -- 24
2020-06-22 16:00:00 31.5 8 Oeste 18 Oeste 0 -- -- 25
2020-06-22 15:00:00 30.6 4 Nordeste 19 Nordeste 0 -- -- 28
2020-06-22 14:00:00 29.2 11 Noroeste 28 Nordeste 0 -- -- 31
2020-06-22 13:00:00 27.6 8 Noroeste 19 Norte 0 -- -- 36
2020-06-22 12:00:00 26.3 11 Nordeste 21 Norte 0 -- -- 41
2020-06-22 11:00:00 23.1 8 Norte 13 Nordeste 0 -- -- 43
2020-06-22 10:00:00 19 3 Oeste 7 Noroeste 0 -- -- 57
2020-06-22 09:00:00 16.5 2 Oeste 7 Sudeste 0 -- -- 70
2020-06-22 08:00:00 14.4 5 Este 9 Este 0 -- -- 73
2020-06-22 07:00:00 12.6 2 Este 8 Nordeste 0 -- -- 83
2020-06-22 06:00:00 13.3 5 Este 8 Nordeste 0 -- -- 81
2020-06-22 05:00:00 14 2 Este 5 Nordeste 0 -- -- 79
2020-06-22 04:00:00 14.2 3 Este 8 Nordeste 0 -- -- 78
2020-06-22 03:00:00 14.7 6 Norte 12 Este 0 -- -- 71
2020-06-22 02:00:00 17 8 Este 15 Nordeste 0 -- -- 65
2020-06-22 01:00:00 18.4 10 Nordeste 19 Norte 0 -- -- 55
2020-06-22 00:00:00 21.2 4 Nordeste 10 Noroeste 0 -- -- 34
2020-06-21 23:00:00 23.1 3 Noroeste 8 Noroeste 0 -- -- 30
2020-06-21 22:00:00 24.9 5 Noroeste 16 Noroeste 0 -- -- 28
2020-06-21 21:00:00 27.7 13 Noroeste 23 Oeste 0 -- -- 25
2020-06-21 20:00:00 29.2 16 Oeste 29 Noroeste 0 -- -- 23
2020-06-21 19:00:00 29.9 12 Noroeste 22 Oeste 0 -- -- 20
2020-06-21 18:00:00 29.7 13 Noroeste 30 Oeste 0 -- -- 19
2020-06-21 17:00:00 29.1 16 Noroeste 32 Oeste 0 -- -- 22
2020-06-21 16:00:00 28.3 13 Sudoeste 27 Oeste 0 -- -- 28
2020-06-21 15:00:00 27.5 10 Oeste 26 Oeste 0 -- -- 33
2020-06-21 14:00:00 26.4 8 Sudoeste 22 Sudoeste 0 -- -- 36
2020-06-21 13:00:00 24.7 10 Oeste 21 Oeste 0 -- -- 39
2020-06-21 12:00:00 23 8 Sudoeste 16 Sudoeste 0 -- -- 46
2020-06-21 11:00:00 20.9 5 Oeste 13 Oeste 0 -- -- 52
2020-06-21 10:00:00 18.9 5 Oeste 12 Sudoeste 0 -- -- 58
2020-06-21 09:00:00 16.4 9 Sudoeste 15 Sudoeste 0 -- -- 66
2020-06-21 08:00:00 14.8 12 Sudoeste 18 Sudoeste 0 -- -- 69
2020-06-21 07:00:00 14.1 13 Sudoeste 19 Sudoeste 0 -- -- 68
2020-06-21 06:00:00 15.1 17 Sudoeste 24 Sudoeste 0 -- -- 64
2020-06-21 05:00:00 15.7 15 Sudoeste 22 Sudoeste 0 -- -- 60
2020-06-21 04:00:00 16.8 16 Sudoeste 22 Sudoeste 0 -- -- 51
2020-06-21 03:00:00 17.9 17 Sudoeste 21 Sudoeste 0 -- -- 45
2020-06-21 02:00:00 18.8 12 Sudoeste 15 Oeste 0 -- -- 43
2020-06-21 01:00:00 19.3 11 Oeste 15 Oeste 0 -- -- 44
2020-06-21 00:00:00 20.9 8 Oeste 12 Oeste 0 -- -- 41
2020-06-20 23:00:00 21.6 8 Oeste 17 Noroeste 0 -- -- 39
2020-06-20 22:00:00 23.6 14 Noroeste 26 Noroeste 0 -- -- 35
2020-06-20 21:00:00 27.4 16 Noroeste 28 Oeste 0 -- -- 30
2020-06-20 20:00:00 28.6 18 Noroeste 37 Oeste 0 -- -- 28
2020-06-20 19:00:00 28.9 23 Oeste 38 Oeste 0 -- -- 25
2020-06-20 18:00:00 29 13 Noroeste 29 Oeste 0 -- -- 28
2020-06-20 17:00:00 28.7 19 Oeste 29 Oeste 0 -- -- 28
2020-06-20 16:00:00 27.9 12 Sudoeste 27 Oeste 0 -- -- 30
2020-06-20 15:00:00 26.7 9 Oeste 28 Oeste 0 -- -- 32
2020-06-20 14:00:00 25.8 11 Oeste 30 Sur 0 -- -- 35
2020-06-20 13:00:00 24.5 6 Sur 18 Oeste 0 -- -- 38
2020-06-20 12:00:00 23.1 4 Sur 13 Sudoeste 0 -- -- 41
2020-06-20 11:00:00 21 5 Noroeste 12 Oeste 0 -- -- 46
2020-06-20 10:00:00 18.3 6 Sudoeste 12 Sudoeste 0 -- -- 54
2020-06-20 09:00:00 15.9 6 Sudoeste 17 Sudoeste 0 -- -- 60
2020-06-20 08:00:00 14.6 10 Sudoeste 20 Sudoeste 0 -- -- 62
2020-06-20 07:00:00 13.2 15 Sudoeste 24 Sudoeste 0 -- -- 64
2020-06-20 06:00:00 13.6 18 Sudoeste 23 Sudoeste 0 -- -- 61
2020-06-20 05:00:00 14.6 19 Sudoeste 24 Sudoeste 0 -- -- 54
2020-06-20 04:00:00 15.8 15 Sur 19 Sur 0 -- -- 49
2020-06-20 03:00:00 14.9 11 Sudoeste 13 Sudoeste 0 -- -- 51
2020-06-20 02:00:00 18.1 9 Sudoeste 15 Sudoeste 0 -- -- 43
2020-06-20 01:00:00 18.3 9 Oeste 15 Oeste 0 -- -- 42
2020-06-20 00:00:00 19.3 7 Oeste 11 Oeste 0 -- -- 38
2020-06-19 23:00:00 20.5 4 Oeste 12 Noroeste 0 -- -- 34
2020-06-19 22:00:00 21.8 9 Noroeste 21 Oeste 0 -- -- 33
2020-06-19 21:00:00 25.1 18 Oeste 29 Oeste 0 -- -- 26
2020-06-19 20:00:00 26.6 17 Oeste 30 Oeste 0 -- -- 23
2020-06-19 19:00:00 26.8 19 Oeste 39 Noroeste 0 -- -- 23
2020-06-19 18:00:00 26.8 15 Sudoeste 31 Oeste 0 -- -- 26
2020-06-19 17:00:00 26.2 18 Oeste 34 Oeste 0 -- -- 28
2020-06-19 16:00:00 25.3 18 Oeste 39 Sudoeste 0 -- -- 29
2020-06-19 15:00:00 24.7 16 Oeste 36 Oeste 0 -- -- 34
2020-06-19 14:00:00 23.2 22 Oeste 35 Oeste 0 -- -- 37
2020-06-19 13:00:00 22.2 14 Oeste 22 Oeste 0 -- -- 43
2020-06-19 12:00:00 20.6 7 Oeste 18 Oeste 0 -- -- 47
2020-06-19 11:00:00 18.6 8 Oeste 18 Oeste 0 -- -- 51
2020-06-19 10:00:00 16.5 8 Oeste 14 Oeste 0 -- -- 58
2020-06-19 09:00:00 14 9 Sudoeste 19 Sudoeste 0 -- -- 65
2020-06-19 08:00:00 12.3 13 Sudoeste 23 Sudoeste 0 -- -- 70
2020-06-19 07:00:00 11.2 18 Sudoeste 23 Sudoeste 0 -- -- 71
2020-06-19 06:00:00 11.7 17 Sudoeste 26 Sudoeste 0 -- -- 66
2020-06-19 05:00:00 12.3 20 Sudoeste 27 Sudoeste 0 -- -- 61
2020-06-19 04:00:00 13.7 17 Sudoeste 21 Sudoeste 0 -- -- 57
2020-06-19 03:00:00 14.9 9 Oeste 13 Oeste 0 -- -- 54
2020-06-19 02:00:00 13.7 5 Sudeste 17 Sudoeste 0 -- -- 63
2020-06-19 01:00:00 15.1 2 Sudeste 4 Sudeste 0 -- -- 58
2020-06-19 00:00:00 17.4 3 Este 5 Nordeste 0 -- -- 48
2020-06-18 23:00:00 18.3 5 Nordeste 10 Norte 0 -- -- 47
2020-06-18 22:00:00 19.9 7 Norte 20 Noroeste 0 -- -- 43
2020-06-18 21:00:00 22.7 13 Noroeste 28 Noroeste 0 -- -- 37
2020-06-18 20:00:00 23.6 16 Noroeste 28 Oeste 0 -- -- 35
2020-06-18 19:00:00 23.5 14 Noroeste 35 Oeste 0 -- -- 36
2020-06-18 18:00:00 24.4 17 Noroeste 42 Oeste 0 -- -- 36
2020-06-18 17:00:00 23.9 20 Oeste 37 Oeste 0 -- -- 36
2020-06-18 16:00:00 23.4 17 Oeste 36 Oeste 0 -- -- 38
2020-06-18 15:00:00 22.8 15 Oeste 29 Sudoeste 0 -- -- 39
2020-06-18 14:00:00 21.6 11 Oeste 28 Oeste 0 -- -- 41
2020-06-18 13:00:00 20.7 9 Oeste 21 Oeste 0 -- -- 45
2020-06-18 12:00:00 19 4 Oeste 28 Noroeste 0 -- -- 50
2020-06-18 11:00:00 17.1 8 Oeste 21 Noroeste 0 -- -- 59
2020-06-18 10:00:00 14.4 8 Oeste 15 Sudoeste 0 -- -- 71
2020-06-18 09:00:00 11.1 6 Sudoeste 13 Sudoeste 0 -- -- 84
2020-06-18 08:00:00 10.1 8 Sudoeste 17 Sudoeste 0 -- -- 85
2020-06-18 07:00:00 9.5 9 Sudoeste 14 Sudoeste 0 -- -- 85
2020-06-18 06:00:00 9.6 12 Sudoeste 15 Sudoeste 0 -- -- 83
2020-06-18 05:00:00 11.1 12 Oeste 17 Sudoeste 0 -- -- 74
2020-06-18 04:00:00 12.6 13 Sudoeste 17 Sudoeste 0 -- -- 66
2020-06-18 03:00:00 14.1 11 Sudoeste 26 Oeste 0 -- -- 59
2020-06-18 02:00:00 15.1 5 Sudeste 10 Sudeste 0 -- -- 57
2020-06-18 01:00:00 15.6 9 Sudeste 12 Sudeste 0 -- -- 56
2020-06-18 00:00:00 16.8 3 Nordeste 7 Norte 0 -- -- 47
2020-06-17 23:00:00 16.9 3 Este 8 Norte 0 -- -- 48
2020-06-17 22:00:00 17.4 3 Norte 14 Noroeste 0 -- -- 47
2020-06-17 21:00:00 19.1 9 Noroeste 20 Noroeste 0 -- -- 40
2020-06-17 20:00:00 20.2 13 Noroeste 26 Oeste 0 -- -- 38
2020-06-17 19:00:00 21.8 14 Noroeste 27 Oeste 0 -- -- 36
2020-06-17 18:00:00 22 18 Oeste 28 Oeste 0 -- -- 34
2020-06-17 17:00:00 20.3 10 Oeste 27 Oeste 0 -- -- 38
2020-06-17 16:00:00 21.4 15 Oeste 30 Oeste 0 -- -- 37
2020-06-17 15:00:00 19.5 12 Norte 22 Noroeste 0 -- -- 43
2020-06-17 14:00:00 19.1 5 Noroeste 31 Noroeste 0 -- -- 46
2020-06-17 13:00:00 17.4 12 Oeste 19 Oeste 0 -- -- 49
2020-06-17 12:00:00 15.8 9 Oeste 19 Oeste 0 -- -- 57
2020-06-17 11:00:00 14.7 7 Oeste 14 Oeste 0 -- -- 66
2020-06-17 10:00:00 12.8 6 Noroeste 14 Noroeste 0 -- -- 73
2020-06-17 09:00:00 11.1 8 Oeste 15 Oeste 0 -- -- 80
2020-06-17 08:00:00 10.5 9 Sudoeste 15 Sudoeste 0 -- -- 82
2020-06-17 07:00:00 9.6 9 Sudoeste 13 Sudoeste 0 -- -- 82
2020-06-17 06:00:00 10.5 9 Sudoeste 15 Oeste 0 -- -- 78
2020-06-17 05:00:00 11 12 Sudoeste 16 Sudoeste 0 -- -- 75
2020-06-17 04:00:00 11.1 12 Sudoeste 16 Sudoeste 0 -- -- 74
2020-06-17 03:00:00 11.5 8 Oeste 12 Oeste 0 -- -- 70
2020-06-17 02:00:00 12.7 6 Oeste 13 Noroeste 0 -- -- 66
2020-06-17 01:00:00 13.4 8 Oeste 13 Noroeste 0 -- -- 62
2020-06-17 00:00:00 14.5 9 Oeste 21 Oeste 0 -- -- 63
2020-06-16 23:00:00 14.6 13 Oeste 22 Oeste 0 -- -- 62
2020-06-16 22:00:00 16.6 17 Oeste 33 Oeste 0 -- -- 53
2020-06-16 21:00:00 18.3 24 Oeste 43 Oeste 0 -- -- 48
2020-06-16 20:00:00 20.4 32 Oeste 48 Oeste 0 -- -- 44
2020-06-16 19:00:00 21 35 Oeste 47 Oeste 0 -- -- 43
2020-06-16 18:00:00 19.6 16 Oeste 23 Oeste 0 -- -- 56
2020-06-16 17:00:00 16.3 18 Oeste 52 Oeste 0.2 -- -- 75
2020-06-16 16:00:00 19.6 19 Noroeste 36 Sudoeste 0 -- -- 50
2020-06-16 15:00:00 21.1 24 Oeste 34 Oeste 0 -- -- 43
2020-06-16 14:00:00 19.2 19 Oeste 35 Oeste 0 -- -- 45
2020-06-16 13:00:00 18.5 18 Oeste 30 Oeste 0 -- -- 48
2020-06-16 12:00:00 17.5 11 Oeste 26 Oeste 0 -- -- 55
2020-06-16 11:00:00 16.1 9 Sudoeste 18 Sudoeste 0 -- -- 61
2020-06-16 10:00:00 14.6 10 Sudoeste 18 Oeste 0 -- -- 69
2020-06-16 09:00:00 12.8 13 Oeste 17 Oeste 0 -- -- 78
2020-06-16 08:00:00 12.1 8 Sudoeste 12 Sudoeste 0 -- -- 82
2020-06-16 07:00:00 11.5 7 Oeste 11 Sudoeste 0 -- -- 84
2020-06-16 06:00:00 11.6 9 Sudoeste 12 Sudoeste 0 -- -- 83
2020-06-16 05:00:00 11.5 8 Oeste 11 Sudoeste 0 -- -- 81
2020-06-16 04:00:00 12.5 8 Sudoeste 14 Oeste 0 -- -- 79
2020-06-16 03:00:00 13.4 9 Oeste 16 Oeste 0 -- -- 73
2020-06-16 02:00:00 13.9 9 Oeste 15 Oeste 0 -- -- 72
2020-06-16 01:00:00 14.6 9 Oeste 22 Oeste 0 -- -- 65
2020-06-16 00:00:00 15.1 16 Oeste 29 Oeste 0 -- -- 62
2020-06-15 23:00:00 16 18 Oeste 30 Oeste 0 -- -- 60
2020-06-15 22:00:00 16.7 21 Noroeste 35 Noroeste 0 -- -- 57
2020-06-15 21:00:00 18.7 24 Noroeste 33 Oeste 0 -- -- 49
2020-06-15 20:00:00 20.8 22 Oeste 38 Oeste 0 -- -- 43
2020-06-15 19:00:00 21.6 21 Oeste 34 Noroeste 0 -- -- 43
2020-06-15 18:00:00 22.2 18 Noroeste 32 Oeste 0 -- -- 43
2020-06-15 17:00:00 22.9 21 Oeste 32 Oeste 0 -- -- 40
2020-06-15 16:00:00 22.1 15 Oeste 29 Oeste 0 -- -- 44
2020-06-15 15:00:00 20.4 9 Sudoeste 24 Oeste 0 -- -- 48
2020-06-15 14:00:00 19.1 10 Oeste 20 Oeste 0 -- -- 51
2020-06-15 13:00:00 17.9 9 Sudoeste 18 Sudoeste 0 -- -- 56
2020-06-15 12:00:00 16.5 5 Oeste 16 Oeste 0 -- -- 60
2020-06-15 11:00:00 16.3 5 Noroeste 13 Noroeste 0 -- -- 61
2020-06-15 10:00:00 14.6 9 Oeste 13 Oeste 0 -- -- 69
2020-06-15 09:00:00 12.7 10 Oeste 13 Oeste 0 -- -- 78
2020-06-15 08:00:00 11.9 7 Oeste 11 Oeste 0 -- -- 80
2020-06-15 07:00:00 11.5 8 Sudoeste 12 Sudoeste 0 -- -- 80
2020-06-15 06:00:00 11.6 7 Sudoeste 13 Sudoeste 0 -- -- 78
2020-06-15 05:00:00 11.8 10 Sudoeste 15 Sudoeste 0 -- -- 76
2020-06-15 04:00:00 12.2 10 Sudoeste 16 Sudoeste 0 -- -- 74
2020-06-15 03:00:00 12.5 10 Sudoeste 14 Sudoeste 0 -- -- 72
2020-06-15 02:00:00 13.1 10 Sudoeste 12 Sudoeste 0 -- -- 69
2020-06-15 01:00:00 13.6 6 Oeste 13 Oeste 0 -- -- 67
2020-06-15 00:00:00 14.2 7 Noroeste 11 Noroeste 0 -- -- 63
2020-06-14 23:00:00 14.7 8 Noroeste 13 Noroeste 0 -- -- 60
2020-06-14 22:00:00 16.3 11 Noroeste 24 Noroeste 0 -- -- 54
2020-06-14 21:00:00 19.2 21 Noroeste 32 Noroeste 0 -- -- 45
2020-06-14 20:00:00 20.8 20 Noroeste 33 Oeste 0 -- -- 40
2020-06-14 19:00:00 21.3 25 Oeste 41 Noroeste 0 -- -- 38
2020-06-14 18:00:00 21.7 19 Noroeste 37 Oeste 0 -- -- 37
2020-06-14 17:00:00 21.2 18 Noroeste 36 Oeste 0 -- -- 38
2020-06-14 16:00:00 20.9 17 Oeste 35 Oeste 0 -- -- 38
2020-06-14 15:00:00 20.2 16 Sudoeste 37 Oeste 0 -- -- 40
2020-06-14 14:00:00 19 15 Oeste 28 Oeste 0 -- -- 43
2020-06-14 13:00:00 17.7 14 Oeste 24 Sudoeste 0 -- -- 47
2020-06-14 12:00:00 17.1 10 Sudoeste 30 Sudoeste 0 -- -- 52
2020-06-14 11:00:00 15.2 7 Oeste 18 Oeste 0 -- -- 56
2020-06-14 10:00:00 13.8 10 Oeste 14 Oeste 0 -- -- 63
2020-06-14 09:00:00 12.3 10 Sudoeste 14 Sudoeste 0 -- -- 68
2020-06-14 08:00:00 10.7 5 Sudoeste 10 Sudoeste 0 -- -- 76
2020-06-14 07:00:00 11.1 8 Sur 12 Sudoeste 0 -- -- 75
2020-06-14 06:00:00 11.5 6 Sudoeste 10 Sudoeste 0 -- -- 75
2020-06-14 05:00:00 11.6 5 Sudoeste 10 Sudoeste 0 -- -- 74
2020-06-14 04:00:00 12 5 Sudoeste 14 Oeste 0 -- -- 73
2020-06-14 03:00:00 12.8 10 Oeste 15 Sudoeste 0 -- -- 69
2020-06-14 02:00:00 13.2 10 Oeste 13 Sudoeste 0 -- -- 67
2020-06-14 01:00:00 13.9 4 Oeste 8 Noroeste 0 -- -- 68
2020-06-14 00:00:00 14.3 0 Calma 6 Noroeste 0 -- -- 66
2020-06-13 23:00:00 14.5 5 Noroeste 13 Noroeste 0 -- -- 65
2020-06-13 22:00:00 15.3 9 Noroeste 20 Noroeste 0 -- -- 62
2020-06-13 21:00:00 16.6 17 Noroeste 30 Noroeste 0 -- -- 53
2020-06-13 20:00:00 17.8 19 Noroeste 33 Oeste 0 -- -- 49
2020-06-13 19:00:00 19.6 19 Oeste 35 Oeste 0 -- -- 41
2020-06-13 18:00:00 19.6 18 Oeste 40 Sudoeste 0 -- -- 40
2020-06-13 17:00:00 18.3 21 Oeste 32 Oeste 0 -- -- 42
2020-06-13 16:00:00 18.1 18 Oeste 36 Oeste 0 -- -- 43
2020-06-13 15:00:00 17.4 18 Oeste 29 Sudoeste 0 -- -- 43
2020-06-13 14:00:00 16.4 12 Sudoeste 28 Oeste 0 -- -- 46
2020-06-13 13:00:00 16.2 20 Oeste 35 Oeste 0 -- -- 49
2020-06-13 12:00:00 14.7 20 Sudoeste 30 Sudoeste 0 -- -- 53
2020-06-13 11:00:00 13.7 17 Oeste 30 Oeste 0 -- -- 60
2020-06-13 10:00:00 12.2 21 Oeste 31 Oeste 0 -- -- 69
2020-06-13 09:00:00 10.6 16 Oeste 24 Oeste 0 -- -- 78
2020-06-13 08:00:00 8.5 13 Sudoeste 22 Sudoeste 0 -- -- 90
2020-06-13 07:00:00 7.7 12 Sudoeste 25 Oeste 0 -- -- 91
2020-06-13 06:00:00 8.5 19 Sudoeste 30 Oeste 0 -- -- 89
2020-06-13 05:00:00 9.2 18 Sudoeste 26 Sudoeste 0 -- -- 87
2020-06-13 04:00:00 9.8 18 Sudoeste 35 Sudoeste 0 -- -- 85
2020-06-13 03:00:00 10.1 22 Sudoeste 35 Sudoeste 0 -- -- 83
2020-06-13 02:00:00 10.3 19 Sudoeste 32 Sudoeste 0 -- -- 84
2020-06-13 01:00:00 10.5 22 Sudoeste 32 Sudoeste 0 -- -- 82
2020-06-13 00:00:00 10.2 15 Sudoeste 25 Sudoeste 0 -- -- 84
2020-06-12 23:00:00 10.7 17 Sudoeste 28 Sudoeste 0 -- -- 78
2020-06-12 22:00:00 11.1 18 Sudoeste 27 Sudoeste 0 -- -- 79
2020-06-12 21:00:00 11.7 22 Sudoeste 47 Sudoeste 0 -- -- 75
2020-06-12 20:00:00 13.2 28 Sudoeste 54 Sudoeste 0 -- -- 70
2020-06-12 19:00:00 14.5 38 Sudoeste 58 Sudoeste 0 -- -- 58
2020-06-12 18:00:00 14.8 46 Oeste 62 Oeste 0 -- -- 57
2020-06-12 17:00:00 16.8 41 Sudoeste 54 Sudoeste 0 -- -- 48
2020-06-12 16:00:00 16.2 39 Sudoeste 58 Sudoeste 0 -- -- 52
2020-06-12 15:00:00 14.6 36 Oeste 49 Sudoeste 0 -- -- 58
2020-06-12 14:00:00 14.4 28 Sudoeste 49 Sudoeste 0 -- -- 60
2020-06-12 13:00:00 13.6 35 Sudoeste 53 Oeste 0 -- -- 60
2020-06-12 12:00:00 13.2 34 Sudoeste 49 Sudoeste 0 -- -- 63
2020-06-12 11:00:00 11.3 35 Oeste 51 Oeste 0 -- -- 70
2020-06-12 10:00:00 10.7 32 Oeste 49 Oeste 0 -- -- 72
2020-06-12 09:00:00 9.7 28 Sudoeste 49 Sudoeste 0 -- -- 74
2020-06-12 08:00:00 8.5 17 Sudoeste 29 Sudoeste 0 -- -- 76
2020-06-12 07:00:00 7.6 16 Sur 26 Sur 0 -- -- 78
2020-06-12 06:00:00 7.2 14 Sur 28 Sudoeste 0 -- -- 80
2020-06-12 05:00:00 7.1 21 Sudoeste 33 Sur 0 -- -- 80
2020-06-12 04:00:00 7.7 16 Sudoeste 27 Sudoeste 0 -- -- 77
2020-06-12 03:00:00 8.4 17 Sudoeste 31 Sudoeste 0 -- -- 74
2020-06-12 02:00:00 9.9 22 Sudoeste 36 Oeste 0 -- -- 66
2020-06-12 01:00:00 10 23 Oeste 39 Oeste 0 -- -- 67
2020-06-12 00:00:00 11.2 30 Oeste 46 Oeste 0 -- -- 63
2020-06-11 23:00:00 12.8 30 Oeste 50 Oeste 0 -- -- 56
2020-06-11 22:00:00 14.2 32 Oeste 53 Oeste 0 -- -- 53
2020-06-11 21:00:00 16.8 41 Oeste 57 Oeste 0 -- -- 44
2020-06-11 20:00:00 18.1 42 Oeste 62 Oeste 0 -- -- 45
2020-06-11 19:00:00 19.4 45 Oeste 63 Oeste 0 -- -- 42
2020-06-11 18:00:00 19.6 44 Oeste 59 Oeste 0 -- -- 43
2020-06-11 17:00:00 18.9 40 Oeste 59 Oeste 0 -- -- 45
2020-06-11 16:00:00 19 38 Oeste 58 Sudoeste 0 -- -- 45
2020-06-11 15:00:00 19 39 Oeste 60 Oeste 0 -- -- 43
2020-06-11 14:00:00 18.1 28 Oeste 52 Oeste 0 -- -- 47
2020-06-11 13:00:00 15.4 26 Oeste 42 Oeste 0 -- -- 62
2020-06-11 12:00:00 14.3 33 Oeste 45 Oeste 0 -- -- 66
2020-06-11 11:00:00 15 23 Sudoeste 36 Sudoeste 0 -- -- 64
2020-06-11 10:00:00 14 19 Sudoeste 33 Sudoeste 0 -- -- 67
2020-06-11 09:00:00 12.5 23 Sudoeste 29 Sudoeste 0 -- -- 74
2020-06-11 08:00:00 11.5 17 Sudoeste 24 Sudoeste 0 -- -- 77
2020-06-11 07:00:00 10.9 13 Sudoeste 19 Sudoeste 0 -- -- 79
2020-06-11 06:00:00 11.4 14 Sudoeste 22 Sudoeste 0 -- -- 77
2020-06-11 05:00:00 12.1 14 Sudoeste 28 Sudoeste 0 -- -- 75
2020-06-11 04:00:00 12.5 17 Sudoeste 26 Sudoeste 0 -- -- 72
2020-06-11 03:00:00 13.5 15 Sudoeste 21 Sudoeste 0 -- -- 68
2020-06-11 02:00:00 15.1 15 Sudoeste 22 Sudoeste 0 -- -- 61
2020-06-11 01:00:00 16.3 17 Oeste 22 Oeste 0 -- -- 54
2020-06-11 00:00:00 18.7 12 Sudoeste 20 Sudoeste 0 -- -- 45
2020-06-10 23:00:00 17.8 5 Sudeste 7 Sudeste 0 -- -- 60
2020-06-10 22:00:00 18.7 5 Sudeste 9 Nordeste 0 -- -- 52
2020-06-10 21:00:00 20.7 5 Nordeste 15 Nordeste 0 -- -- 39
2020-06-10 20:00:00 22 14 Noroeste 21 Noroeste 0 -- -- 33
2020-06-10 19:00:00 22.6 11 Noroeste 27 Oeste 0 -- -- 32
2020-06-10 18:00:00 21.8 12 Noroeste 30 Oeste 0 -- -- 33
2020-06-10 17:00:00 23 13 Oeste 33 Oeste 0 -- -- 30
2020-06-10 16:00:00 21.9 13 Oeste 37 Oeste 0 -- -- 34
2020-06-10 15:00:00 21.4 13 Noroeste 34 Oeste 0 -- -- 34
2020-06-10 14:00:00 20.9 13 Noroeste 31 Oeste 0 -- -- 39
2020-06-10 13:00:00 19.9 7 Noroeste 15 Oeste 0 -- -- 41
2020-06-10 12:00:00 18.1 6 Oeste 12 Oeste 0 -- -- 43
2020-06-10 11:00:00 16.8 5 Norte 11 Este 0 -- -- 51
2020-06-10 10:00:00 14 3 Este 8 Este 0 -- -- 63
2020-06-10 09:00:00 10.9 6 Sudeste 13 Sudeste 0 -- -- 72
2020-06-10 08:00:00 7.6 10 Sudeste 14 Sudeste 0 -- -- 86
2020-06-10 07:00:00 6.7 7 Sudeste 13 Nordeste 0 -- -- 84
2020-06-10 06:00:00 6.9 6 Nordeste 8 Nordeste 0 -- -- 84
2020-06-10 05:00:00 7.9 10 Este 14 Sudeste 0 -- -- 80
2020-06-10 04:00:00 8.4 4 Sudeste 11 Este 0 -- -- 78
2020-06-10 03:00:00 9 8 Este 22 Este 0 -- -- 73
2020-06-10 02:00:00 9.5 14 Este 21 Este 0 -- -- 69
2020-06-10 01:00:00 10.4 15 Este 22 Este 0 -- -- 65
2020-06-10 00:00:00 11.5 15 Este 24 Nordeste 0 -- -- 61
2020-06-09 23:00:00 11.9 13 Nordeste 18 Nordeste 0 -- -- 60
2020-06-09 22:00:00 13.4 12 Nordeste 15 Nordeste 0 -- -- 57
2020-06-09 21:00:00 16.8 13 Norte 18 Noroeste 0 -- -- 44
2020-06-09 20:00:00 18.9 14 Noroeste 21 Noroeste 0 -- -- 36
2020-06-09 19:00:00 19.3 13 Noroeste 25 Noroeste 0 -- -- 34
2020-06-09 18:00:00 18.6 10 Oeste 58 Este 0 -- -- 37
2020-06-09 17:00:00 17.8 8 Noroeste 26 Norte 0 -- -- 41
2020-06-09 16:00:00 18.8 9 Nordeste 26 Nordeste 0 -- -- 40
2020-06-09 15:00:00 16.5 10 Norte 25 Norte 0 -- -- 43
2020-06-09 14:00:00 17.6 10 Norte 24 Noroeste 0 -- -- 42
2020-06-09 13:00:00 15.8 8 Noroeste 23 Nordeste 0 -- -- 47
2020-06-09 12:00:00 15.4 8 Norte 20 Nordeste 0 -- -- 51
2020-06-09 11:00:00 13.8 12 Nordeste 22 Nordeste 0 -- -- 55
2020-06-09 10:00:00 12 8 Norte 15 Norte 0 -- -- 63
2020-06-09 09:00:00 9 3 Noroeste 6 Noroeste 0 -- -- 80
2020-06-09 08:00:00 7.5 0 Calma 4 Sudoeste 0 -- -- 83
2020-06-09 07:00:00 5.9 3 Sudoeste 5 Sudeste 0 -- -- 88
2020-06-09 06:00:00 6.1 3 Sur 8 Este 0 -- -- 84
2020-06-09 05:00:00 6.4 4 Este 14 Nordeste 0 -- -- 84
2020-06-09 04:00:00 6.7 10 Nordeste 14 Nordeste 0 -- -- 82
2020-06-09 03:00:00 7.4 11 Nordeste 19 Nordeste 0 -- -- 78
2020-06-09 02:00:00 8.5 15 Nordeste 27 Nordeste 0 -- -- 72
2020-06-09 01:00:00 9.4 18 Nordeste 27 Nordeste 0 -- -- 68
2020-06-09 00:00:00 10.2 14 Nordeste 26 Norte 0 -- -- 71
2020-06-08 23:00:00 11.9 16 Norte 26 Nordeste 0 -- -- 66
2020-06-08 22:00:00 14.5 4 Nordeste 12 Nordeste 0 -- -- 55
2020-06-08 21:00:00 16.4 10 Nordeste 26 Norte 0 -- -- 46
2020-06-08 20:00:00 17.6 10 Norte 23 Norte 0 -- -- 40
2020-06-08 19:00:00 18.1 12 Noroeste 28 Norte 0 -- -- 40
2020-06-08 18:00:00 18.7 13 Norte 28 Norte 0 -- -- 42
2020-06-08 17:00:00 16.2 17 Norte 32 Norte 0 -- -- 46
2020-06-08 16:00:00 16.9 13 Norte 32 Norte 0 -- -- 43
2020-06-08 15:00:00 15.6 21 Norte 37 Noroeste 0 -- -- 50
2020-06-08 14:00:00 16.4 15 Norte 31 Norte 0 -- -- 47
2020-06-08 13:00:00 15.7 16 Norte 31 Norte 0 -- -- 50
2020-06-08 12:00:00 14.5 15 Norte 28 Nordeste 0 -- -- 54
2020-06-08 11:00:00 12.4 14 Norte 28 Nordeste 0 -- -- 61
2020-06-08 10:00:00 11.2 16 Nordeste 25 Nordeste 0 -- -- 63
2020-06-08 09:00:00 10 13 Nordeste 21 Norte 0 -- -- 65
2020-06-08 08:00:00 8.7 8 Norte 14 Norte 0 -- -- 74
2020-06-08 07:00:00 7.3 3 Norte 12 Nordeste 0 -- -- 86
2020-06-08 06:00:00 6.9 3 Nordeste 10 Nordeste 0 -- -- 86
2020-06-08 05:00:00 6.9 6 Norte 19 Nordeste 0 -- -- 85
2020-06-08 04:00:00 7 12 Nordeste 17 Norte 0 -- -- 82
2020-06-08 03:00:00 7.2 11 Norte 21 Norte 0 -- -- 82
2020-06-08 02:00:00 8 12 Nordeste 20 Norte 0 -- -- 78
2020-06-08 01:00:00 9.2 9 Nordeste 21 Nordeste 0 -- -- 73
2020-06-08 00:00:00 10.2 15 Nordeste 27 Nordeste 0 -- -- 72
2020-06-07 23:00:00 11 14 Nordeste 28 Nordeste 0 -- -- 70
2020-06-07 22:00:00 12 19 Norte 32 Norte 0 -- -- 70
2020-06-07 21:00:00 13.6 15 Nordeste 29 Nordeste 0 -- -- 67
2020-06-07 20:00:00 15.7 18 Nordeste 27 Nordeste 0.2 -- -- 64
2020-06-07 19:00:00 13.4 15 Nordeste 31 Norte 0.2 -- -- 82
2020-06-07 18:00:00 16.4 14 Norte 26 Norte 0 -- -- 68
2020-06-07 17:00:00 17.1 12 Norte 23 Norte 0 -- -- 68
2020-06-07 16:00:00 14.9 10 Norte 19 Norte 0 -- -- 87
2020-06-07 15:00:00 13.3 16 Noroeste 26 Noroeste 0.2 -- -- 92
2020-06-07 14:00:00 15.3 19 Noroeste 24 Noroeste 0 -- -- 87
2020-06-07 13:00:00 14.5 13 Noroeste 27 Noroeste 0.2 -- -- 91
2020-06-07 12:00:00 14.9 20 Oeste 30 Oeste 0 -- -- 86
2020-06-07 11:00:00 13.9 15 Sudoeste 23 Sudoeste 0 -- -- 90
2020-06-07 10:00:00 13.3 15 Sudoeste 20 Oeste 0 -- -- 93
2020-06-07 09:00:00 13.3 10 Sudoeste 14 Sur 0 -- -- 92
2020-06-07 08:00:00 13.1 0 Calma 5 Sudeste 0 -- -- 93
2020-06-07 07:00:00 12.1 3 Este 12 Norte 0 -- -- 94
2020-06-07 06:00:00 12.7 5 Norte 8 Norte 0 -- -- 94
2020-06-07 05:00:00 12.6 2 Sudoeste 9 Sudeste 0 -- -- 88
2020-06-07 04:00:00 13 3 Sudeste 8 Sudeste 0.2 -- -- 91
2020-06-07 03:00:00 13.2 5 Este 17 Oeste 3.6 -- -- 90
2020-06-07 02:00:00 14.1 8 Noroeste 15 Oeste 0.8 -- -- 85
2020-06-07 01:00:00 14.6 6 Nordeste 14 Nordeste 0 -- -- 79
2020-06-07 00:00:00 14.7 9 Este 17 Nordeste 0 -- -- 76
2020-06-06 23:00:00 15.3 12 Nordeste 24 Norte 0 -- -- 71
2020-06-06 22:00:00 18 19 Norte 33 Oeste 0 -- -- 63
2020-06-06 21:00:00 20.4 27 Oeste 46 Oeste 0 -- -- 46
2020-06-06 20:00:00 23 31 Oeste 45 Oeste 0 -- -- 40
2020-06-06 19:00:00 24.3 28 Sudoeste 44 Oeste 0 -- -- 32
2020-06-06 18:00:00 25.4 24 Oeste 40 Oeste 0 -- -- 30
2020-06-06 17:00:00 25.1 23 Oeste 42 Oeste 0 -- -- 29
2020-06-06 16:00:00 24.7 23 Oeste 39 Noroeste 0 -- -- 35
2020-06-06 15:00:00 24.5 10 Oeste 24 Oeste 0 -- -- 38
2020-06-06 14:00:00 23.8 11 Oeste 19 Oeste 0 -- -- 42
2020-06-06 13:00:00 22 6 Este 18 Oeste 0 -- -- 50
2020-06-06 12:00:00 21.3 8 Sudoeste 21 Oeste 0 -- -- 54
2020-06-06 11:00:00 19.5 16 Oeste 23 Oeste 0 -- -- 60
2020-06-06 10:00:00 18.2 15 Oeste 21 Oeste 0 -- -- 65
2020-06-06 09:00:00 16.5 14 Oeste 23 Sudoeste 0 -- -- 70
2020-06-06 08:00:00 15.2 14 Sur 20 Sudoeste 0 -- -- 74
2020-06-06 07:00:00 13.9 13 Sur 23 Sudoeste 0 -- -- 78
2020-06-06 06:00:00 14.1 18 Sur 24 Sudoeste 0 -- -- 76
2020-06-06 05:00:00 14 14 Sudoeste 23 Sudoeste 0 -- -- 75
2020-06-06 04:00:00 14.5 16 Sudoeste 29 Sudoeste 0 -- -- 71
2020-06-06 03:00:00 16.5 18 Sudoeste 25 Sudoeste 0 -- -- 61
2020-06-06 02:00:00 17.1 18 Sur 23 Sur 0 -- -- 55
2020-06-06 01:00:00 17.7 10 Sudoeste 14 Oeste 0 -- -- 53
2020-06-06 00:00:00 18.5 9 Sudoeste 16 Sudoeste 0 -- -- 52
2020-06-05 23:00:00 20.1 0 Calma 8 Nordeste 0 -- -- 50
2020-06-05 22:00:00 21.9 5 Norte 8 Norte 0 -- -- 43
2020-06-05 21:00:00 25.1 3 Norte 16 Oeste 0 -- -- 37
2020-06-05 20:00:00 25.8 5 Oeste 21 Sudoeste 0 -- -- 32
2020-06-05 19:00:00 25.4 12 Sudoeste 22 Sudoeste 0 -- -- 33
2020-06-05 18:00:00 25.2 11 Oeste 22 Oeste 0 -- -- 34
2020-06-05 17:00:00 24.3 8 Sudoeste 19 Oeste 0 -- -- 35
2020-06-05 16:00:00 23.2 12 Sudoeste 19 Oeste 0 -- -- 36
2020-06-05 15:00:00 21.9 9 Sudoeste 18 Oeste 0 -- -- 35
2020-06-05 14:00:00 20.7 10 Oeste 26 Oeste 0 -- -- 40
2020-06-05 13:00:00 18.9 6 Sudoeste 19 Oeste 0 -- -- 47
2020-06-05 12:00:00 17.6 3 Norte 21 Oeste 0 -- -- 55
2020-06-05 11:00:00 15.8 5 Sudoeste 17 Oeste 0 -- -- 57
2020-06-05 10:00:00 14 5 Sudoeste 11 Sudoeste 0 -- -- 69
2020-06-05 09:00:00 12.4 5 Sudeste 10 Sudeste 0 -- -- 81
2020-06-05 08:00:00 9.4 9 Sudeste 14 Sudeste 0 -- -- 90
2020-06-05 07:00:00 7.6 10 Sudeste 14 Sudeste 0 -- -- 93
2020-06-05 06:00:00 9 3 Sur 12 Sudoeste 0 -- -- 87
2020-06-05 05:00:00 9.2 12 Sudoeste 16 Sudoeste 0 -- -- 88
2020-06-05 04:00:00 9.4 4 Sudoeste 6 Sudoeste -- -- -- 86
2020-06-05 03:00:00 9.4 4 Este 10 Este 0 -- -- 86
2020-06-05 02:00:00 9.8 7 Este 10 Este 0 -- -- 85
2020-06-05 01:00:00 10.4 10 Nordeste 18 Nordeste 0 -- -- 83
2020-06-05 00:00:00 11.5 7 Nordeste 15 Noroeste 0 -- -- 76
2020-06-04 23:00:00 13.2 10 Noroeste 19 Noroeste 0 -- -- 65
2020-06-04 22:00:00 14.3 9 Noroeste 28 Noroeste 0 -- -- 61
2020-06-04 21:00:00 17.2 21 Noroeste 37 Noroeste 0 -- -- 48
2020-06-04 20:00:00 18.3 29 Noroeste 44 Noroeste 0 -- -- 43
2020-06-04 19:00:00 18.3 29 Noroeste 44 Noroeste 0 -- -- 47
2020-06-04 18:00:00 18.3 24 Noroeste 43 Oeste 0 -- -- 47
2020-06-04 17:00:00 18.9 29 Noroeste 47 Oeste 0 -- -- 45
2020-06-04 16:00:00 19.2 30 Oeste 42 Noroeste 0 -- -- 45
2020-06-04 15:00:00 18.3 26 Noroeste 37 Noroeste 0 -- -- 49
2020-06-04 14:00:00 17.6 26 Oeste 57 Noroeste 0 -- -- 50
2020-06-04 13:00:00 17.1 25 Noroeste 40 Noroeste 0 -- -- 58
2020-06-04 12:00:00 15.6 20 Noroeste 35 Oeste 0 -- -- 65
2020-06-04 11:00:00 14.3 23 Oeste 36 Noroeste 0 -- -- 71
2020-06-04 10:00:00 13.1 22 Noroeste 32 Noroeste 0 -- -- 85
2020-06-04 09:00:00 12.7 7 Noroeste 11 Noroeste 0 -- -- 96
2020-06-04 08:00:00 12.4 7 Noroeste 13 Noroeste 0 -- -- 97
2020-06-04 07:00:00 12.2 9 Noroeste 19 Noroeste 0.2 -- -- 97
2020-06-04 06:00:00 12.9 10 Noroeste 17 Oeste 0.2 -- -- 97
2020-06-04 05:00:00 14 12 Noroeste 18 Noroeste 0.2 -- -- 97
2020-06-04 04:00:00 14.4 12 Noroeste 17 Noroeste 0 -- -- 96
2020-06-04 03:00:00 14.6 11 Sudoeste 15 Sudoeste 0 -- -- 95
2020-06-04 02:00:00 14 5 Norte 18 Sur 0.2 -- -- 95
2020-06-04 01:00:00 13.6 15 Sudeste 21 Sudeste 16.4 -- -- 95
2020-06-04 00:00:00 13.7 6 Este 12 Sudeste 10.4 -- -- 93
2020-06-03 23:00:00 14.7 6 Noroeste 19 Norte 2 -- -- 92
2020-06-03 22:00:00 15 10 Nordeste 22 Norte 1.8 -- -- 89
2020-06-03 21:00:00 17.8 14 Nordeste 31 Este 0 -- -- 68
2020-06-03 20:00:00 18.2 22 Nordeste 46 Nordeste 0 -- -- 64
2020-06-03 19:00:00 23.8 33 Oeste 50 Sudoeste 0 -- -- 44
2020-06-03 18:00:00 24.2 35 Oeste 50 Oeste 0 -- -- 44
2020-06-03 17:00:00 25 31 Oeste 48 Oeste 0 -- -- 43
2020-06-03 16:00:00 25.9 24 Oeste 41 Oeste 0 -- -- 39
2020-06-03 15:00:00 24.1 24 Oeste 34 Oeste 0 -- -- 42
2020-06-03 14:00:00 24.2 23 Oeste 35 Oeste 0 -- -- 47
2020-06-03 13:00:00 23.3 17 Oeste 31 Oeste 0 -- -- 51
2020-06-03 12:00:00 21.8 20 Oeste 36 Oeste 0 -- -- 57
2020-06-03 11:00:00 19.7 12 Sudoeste 22 Sudoeste 0 -- -- 71
2020-06-03 10:00:00 17.9 8 Oeste 19 Sudoeste 0 -- -- 79
2020-06-03 09:00:00 16.3 15 Sudoeste 22 Sudoeste 0 -- -- 85
2020-06-03 08:00:00 15.3 16 Sur 23 Sur 0 -- -- 87
2020-06-03 07:00:00 14.9 14 Sudoeste 23 Sudoeste 0 -- -- 86
2020-06-03 06:00:00 15.3 14 Sur 24 Sur 0 -- -- 82
2020-06-03 05:00:00 15.9 20 Sur 26 Sudoeste 0 -- -- 78
2020-06-03 04:00:00 16.1 21 Sur 30 Sur 0 -- -- 74
2020-06-03 03:00:00 16.4 15 Sur 24 Sur 0 -- -- 71
2020-06-03 02:00:00 16.9 17 Sur 22 Sudoeste 0 -- -- 70
2020-06-03 01:00:00 17.8 16 Sudoeste 24 Sur 0 -- -- 68
2020-06-03 00:00:00 20 15 Sudoeste 23 Sur 0 -- -- 59